NCAR-RAP Real-Time Weather Data

Output produced by METARs form (19 June 2019  11:07 UTC)
found at http://weather.rap.ucar.edu/surface/
 
KBZN 191056Z 16006KT 10SM CLR 10/06 A2993 RMK AO2 SLP108 T01000061 $
KBZN 190956Z AUTO 16006KT 10SM CLR 08/07 A2993 RMK AO2 SLP115 T00830067 $
KBZN 190856Z AUTO 16005KT 10SM CLR 09/07 A2995 RMK AO2 SLP121 T00890072 58007 $
KBZN 190756Z AUTO 17004KT 10SM CLR 09/08 A2996 RMK AO2 SLP128 T00940078 $
KBZN 190656Z 14006KT 10SM CLR 10/08 A2996 RMK AO2 SLP116 T01000078 402330061 $
KBZN 190556Z 14006KT 10SM CLR 11/09 A2997 RMK AO2 SLP120 T01110089 10228 20111 50005 $
KBZN 190456Z 14003KT 10SM SCT100 13/09 A2998 RMK AO2 SLP123 T01280094 $
KBZN 190356Z 14006KT 10SM CLR 13/10 A2996 RMK AO2 SLP119 T01330100 $
KBZN 190256Z 11004KT 10SM CLR 19/11 A2995 RMK AO2 SLP112 T01890106 55002
KBZN 190156Z 09003KT 10SM CLR 22/11 A2994 RMK AO2 SLP107 T02170111
KBZN 190056Z 18005KT 10SM CLR 22/08 A2994 RMK AO2 SLP109 T02170083
KBZN 182356Z 00000KT 10SM CLR 22/08 A2996 RMK AO2 SLP123 60002 T02220083 10233 20133 58015
KBZN 182256Z 00000KT 10SM CLR 22/09 A2999 RMK AO2 RAB14E24 SLP131 P0000 T02170089
KBZN 182156Z 36006KT 10SM SCT050 SCT070 BKN110 19/11 A3000 RMK AO2 RAE2059B36E37 TSB34E49 SLP138 P0000 T01940106
KBZN 182153Z 36006KT 10SM FEW050 SCT070 BKN110 19/10 A3000 RMK AO2 RAE2059B36E37 TSB34E49 P0000
KBZN 182140Z 35008KT 10SM TS FEW120 18/10 A3001 RMK AO2 LTG DSNT NW RAE2059B36E37 TSB34 P0000 T01830100
KBZN 182056Z 06011KT 10SM -RA BKN090 BKN110 17/11 A3001 RMK AO2 PK WND 02026/2006 LTG DSNT NW RAE30B49 TSB01E39 SLP140 P0002 60002 T01720106 56008
KBZN 182045Z 06013KT 10SM FEW011 BKN100 BKN120 18/11 A3001 RMK AO2 PK WND 02026/2006 LTG DSNT NW RAE30 TSB01E39 P0002 T01780111
KBZN 182007Z 02019G26KT 6SM -TSRA FEW047 BKN070 OVC090 14/10 A3003 RMK AO2 PK WND 02026/2006 LTG DSNT NW TSB01 P0001 T01440100
KBZN 181956Z 34021G32KT 10SM VCTS -RA FEW050 BKN070 OVC110 16/10 A3003 RMK AO2 PK WND 36032/1949 LTG DSNT NW RAB56 SLP149 P0000 T01560100
KBZN 181944Z 36021G26KT 10SM FEW070 BKN090 OVC110 20/09 A3003 RMK AO2 PK WND 35026/1943 LTG DSNT NW-NE T02000094
KBZN 181856Z VRB06KT 10SM CLR 23/08 A3001 RMK AO2 LTG DSNT N AND NW SLP133 T02280083
KBZN 181756Z VRB04KT 10SM CLR 22/09 A3004 RMK AO2 SLP140 T02220089 10222 20067 58013
KBZN 181656Z 00000KT 10SM BKN110 19/09 A3006 RMK AO2 SLP148 T01940089
KBZN 181556Z 00000KT 10SM CLR 18/08 A3007 RMK AO2 SLP153 T01830083